Latest Coastal Weather Observations for Rosslyn Bay Harbour

IDQ60701

Issued at 8:02 am EST Thursday 29 September 2016 (issued every 10 minutes, with the page automatically refreshed every 10 minutes)

About coastal observations | Map of coastal stations | Coastal observations for QLD | Marine services | Other Formats
Station Details ID: 033208 Name: ROSSLYN BAY NTC AWS Lat: -23.16 Lon: 150.79 Height: 0.0 m
Data from the previous 72 hours. | See also: Recent months for locations in Queensland
Date/Time
EST
Temp
°C
Wind Pressure Rain since
9am
mm
Weather Cloud Vis
km
Sea
Height
m
Swell
Dir  Spd
kts
Gust
kts
hPa Trend Height
m
Period
s
Dir
29/08:00am 22.4 NNW 6 7 1011.1 - - - - - - - - -
29/07:30am 22.1 NNW 6 9 1010.4 - - - - - - - - -
29/07:00am 22.6 N 8 13 1010.4 - - - - - - - - -
29/06:30am 22.6 N 10 13 1010.1 - - - - - - - - -
29/06:00am 22.1 N 9 12 1010.2 - - - - - - - - -
29/05:30am 22.3 N 8 11 1010.5 - - - - - - - - -
29/05:00am 22.3 N 7 9 1010.8 - - - - - - - - -
29/04:30am 22.4 N 7 10 1010.6 - - - - - - - - -
29/04:00am 22.1 NW 3 5 1010.5 - - - - - - - - -
29/03:30am 22.5 NNW 6 8 1010.3 - - - - - - - - -
29/03:00am 22.5 NNW 8 10 1010.7 - - - - - - - - -
29/02:30am 22.1 N 7 9 1010.6 - - - - - - - - -
29/02:00am 22.1 N 5 7 1010.9 - - - - - - - - -
29/01:30am 22.3 N 5 7 1011.4 - - - - - - - - -
29/01:00am 22.6 N 5 8 1011.4 - - - - - - - - -
29/12:30am 22.5 N 5 7 1011.8 - - - - - - - - -
29/12:00am 22.5 NNW 4 7 1012.4 - - - - - - - - -
 
Date/Time
EST
Temp
°C
Wind Pressure Rain since
9am
mm
Weather Cloud Vis
km
Sea
Height
m
Swell
Dir  Spd
kts
Gust
kts
hPa Trend Height
m
Period
s
Dir
28/11:30pm 22.4 NNW 7 9 1012.7 - - - - - - - - -
28/11:00pm 22.5 NNW 7 9 1012.7 - - - - - - - - -
28/10:30pm 22.5 NNW 8 11 1013.2 - - - - - - - - -
28/10:00pm 22.1 N 8 11 1012.7 - - - - - - - - -
28/09:30pm 21.6 N 8 11 1013.0 - - - - - - - - -
28/09:00pm 21.9 N 9 12 1012.6 - - - - - - - - -
28/08:30pm 22.3 N 10 14 1012.6 - - - - - - - - -
28/08:00pm 22.7 N 9 13 1012.8 - - - - - - - - -
28/07:30pm 23.2 N 10 12 1012.4 - - - - - - - - -
28/07:00pm 23.9 NNE 13 17 1012.1 - - - - - - - - -
28/06:30pm 23.9 NNE 12 16 1012.1 - - - - - - - - -
28/06:00pm 23.9 NNE 13 16 1011.8 - - - - - - - - -
28/05:30pm 23.9 NNE 12 17 1011.6 - - - - - - - - -
28/05:00pm 24.1 NNE 10 15 1011.7 - - - - - - - - -
28/04:30pm 24.1 NNE 8 12 1011.7 - - - - - - - - -
28/04:00pm 24.1 NNE 8 12 1011.5 - - - - - - - - -
28/03:30pm 24.2 NNE 8 12 1011.5 - - - - - - - - -
28/03:00pm 24.3 NNE 7 11 1011.8 - - - - - - - - -
28/02:30pm 24.2 NNE 6 10 1012.0 - - - - - - - - -
28/02:00pm 24.0 NNE 6 9 1012.3 - - - - - - - - -
28/01:30pm 24.1 NNE 5 8 1012.9 - - - - - - - - -
28/01:00pm 23.7 NNE 5 8 1013.4 - - - - - - - - -
28/12:30pm 23.6 NE 4 7 1013.5 - - - - - - - - -
28/12:00pm 23.4 NNE 4 6 1014.1 - - - - - - - - -
28/11:30am 23.3 NE 4 5 1014.3 - - - - - - - - -
28/11:00am 23.9 NE 3 5 1014.9 - - - - - - - - -
28/10:30am 24.0 ENE 2 4 1015.2 - - - - - - - - -
28/10:00am 23.8 SSE 2 4 1015.4 - - - - - - - - -
28/09:30am 23.0 S 3 6 1015.5 - - - - - - - - -
28/09:00am 23.1 SSE 2 4 1015.9 - - - - - - - - -
28/08:30am 22.6 S 3 5 1015.6 - - - - - - - - -
28/08:00am 22.9 S 1 3 1015.8 - - - - - - - - -
28/07:30am 21.3 S 2 3 1015.3 - - - - - - - - -
28/07:00am 19.7 SW 1 2 1014.9 - - - - - - - - -
28/06:30am 18.9 W 2 4 1014.6 - - - - - - - - -
28/06:00am 19.5 SSW 1 2 1014.0 - - - - - - - - -
28/05:30am 19.3 SSW 1 2 1013.9 - - - - - - - - -
28/05:00am 18.2 W 2 3 1013.5 - - - - - - - - -
28/04:30am 19.0 W 2 3 1013.3 - - - - - - - - -
28/04:00am 18.6 WSW 2 4 1013.2 - - - - - - - - -
28/03:30am 18.7 SW 2 3 1013.1 - - - - - - - - -
28/03:00am 19.3 SSW 1 3 1013.0 - - - - - - - - -
28/02:30am 19.6 SSW 3 6 1013.2 - - - - - - - - -
28/02:00am 19.1 SSW 4 7 1012.8 - - - - - - - - -
28/01:30am 19.5 SSW 4 6 1012.9 - - - - - - - - -
28/01:00am 19.6 SSW 5 7 1013.4 - - - - - - - - -
28/12:30am 20.1 SSW 5 8 1013.7 - - - - - - - - -
28/12:00am 20.8 SSW 5 9 1014.0 - - - - - - - - -
 
Date/Time
EST
Temp
°C
Wind Pressure Rain since
9am
mm
Weather Cloud Vis
km
Sea
Height
m
Swell
Dir  Spd
kts
Gust
kts
hPa Trend Height
m
Period
s
Dir
27/11:30pm 20.2 SSW 5 8 1014.2 - - - - - - - - -
27/11:00pm 21.0 S 4 6 1014.0 - - - - - - - - -
27/10:30pm 22.4 SSW 5 8 1014.1 - - - - - - - - -
27/10:00pm 22.5 SSW 7 9 1014.5 - - - - - - - - -
27/09:30pm 22.9 SSW 5 8 1014.6 - - - - - - - - -
27/09:00pm 23.5 SSW 3 6 1014.6 - - - - - - - - -
27/08:30pm 23.6 SSW 3 4 1014.4 - - - - - - - - -
27/08:00pm 22.5 SSW 2 4 1014.1 - - - - - - - - -
27/07:30pm 22.7 SW 1 2 1014.1 - - - - - - - - -
27/07:00pm 23.3 CALM 0 1 1013.6 - - - - - - - - -
27/06:30pm 23.4 SW 1 2 1013.6 - - - - - - - - -
27/06:00pm 23.5 N 1 3 1013.0 - - - - - - - - -
27/05:30pm 24.3 NW 2 4 1012.5 - - - - - - - - -
27/05:00pm 23.8 N 2 3 1012.3 - - - - - - - - -
27/04:30pm 23.6 N 3 5 1012.3 - - - - - - - - -
27/04:00pm 23.6 N 6 8 1012.1 - - - - - - - - -
27/03:30pm 23.9 NE 5 8 1011.9 - - - - - - - - -
27/03:00pm 23.2 ENE 7 9 1011.7 - - - - - - - - -
27/02:30pm 23.2 NE 8 10 1012.3 - - - - - - - - -
27/02:00pm 23.1 NE 8 10 1012.5 - - - - - - - - -
27/01:30pm 23.2 NE 8 11 1012.7 - - - - - - - - -
27/01:00pm 25.1 SW 1 4 1013.1 - - - - - - - - -
27/12:30pm 24.5 W 3 9 1013.5 - - - - - - - - -
27/12:00pm 24.4 SW 2 5 1014.2 - - - - - - - - -
27/11:30am 23.5 S 6 10 1014.8 - - - - - - - - -
27/11:00am 23.3 S 7 11 1014.9 - - - - - - - - -
27/10:30am 23.0 S 8 12 1015.5 - - - - - - - - -
27/10:00am 22.9 S 7 13 1015.7 - - - - - - - - -
27/09:30am 23.1 S 8 14 1016.0 - - - - - - - - -
27/09:00am 22.8 S 4 9 1015.9 - - - - - - - - -
27/08:30am 22.3 S 3 6 1015.8 - - - - - - - - -
27/08:00am 21.4 SSW 2 3 1015.5 - - - - - - - - -
27/07:30am 20.4 SSW 3 5 1015.0 - - - - - - - - -
27/07:00am 19.6 SSW 3 5 1014.8 - - - - - - - - -
27/06:30am 19.0 SSW 3 5 1014.1 - - - - - - - - -
27/06:00am 19.8 SSW 2 4 1013.8 - - - - - - - - -
27/05:30am 19.8 S 2 4 1013.5 - - - - - - - - -
27/05:00am 19.6 S 2 4 1013.3 - - - - - - - - -
27/04:30am 20.0 SSE 3 5 1012.8 - - - - - - - - -
27/04:00am 20.0 NW 1 3 1012.4 - - - - - - - - -
27/03:30am 20.0 WNW 3 5 1012.1 - - - - - - - - -
27/03:00am 19.7 WNW 4 7 1012.2 - - - - - - - - -
27/02:30am 19.9 WNW 4 6 1011.9 - - - - - - - - -
27/02:00am 20.1 WSW 6 10 1012.4 - - - - - - - - -
27/01:30am 20.3 W 5 9 1012.6 - - - - - - - - -
27/01:00am 20.1 W 4 6 1012.9 - - - - - - - - -
27/12:30am 20.2 WSW 3 5 1013.3 - - - - - - - - -
27/12:00am 19.9 WSW 4 7 1013.4 - - - - - - - - -
 
Date/Time
EST
Temp
°C
Wind Pressure Rain since
9am
mm
Weather Cloud Vis
km
Sea
Height
m
Swell
Dir  Spd
kts
Gust
kts
hPa Trend Height
m
Period
s
Dir
26/11:30pm 20.3 WNW 5 8 1013.2 - - - - - - - - -
26/11:00pm 21.6 N 6 9 1013.1 - - - - - - - - -
26/10:30pm 21.6 N 6 8 1013.1 - - - - - - - - -
26/10:00pm 21.7 N 5 7 1013.2 - - - - - - - - -
26/09:30pm 21.9 NNW 4 5 1013.2 - - - - - - - - -
26/09:00pm 22.6 NNE 7 10 1013.0 - - - - - - - - -
26/08:30pm 22.3 N 4 6 1013.0 - - - - - - - - -
26/08:00pm 22.4 N 5 7 1012.7 - - - - - - - - -
26/07:30pm 22.5 NNW 4 6 1012.7 - - - - - - - - -
26/07:00pm 23.0 N 7 9 1012.3 - - - - - - - - -
26/06:30pm 23.2 N 10 13 1011.8 - - - - - - - - -
26/06:00pm 23.0 NNE 8 11 1011.7 - - - - - - - - -
26/05:30pm 23.1 NNE 9 12 1011.4 - - - - - - - - -
26/05:00pm 23.2 NNE 7 11 1011.0 - - - - - - - - -
26/04:30pm 23.4 NNE 7 11 1010.8 - - - - - - - - -
26/04:00pm 23.4 NE 8 13 1010.6 - - - - - - - - -
26/03:30pm 23.2 ENE 10 13 1010.4 - - - - - - - - -
26/03:00pm 23.6 ENE 9 13 1010.5 - - - - - - - - -
26/02:30pm 22.9 ENE 9 11 1010.6 - - - - - - - - -
26/02:00pm 23.4 ENE 11 13 1010.8 - - - - - - - - -
26/01:30pm 24.1 ENE 6 13 1011.2 - - - - - - - - -
26/01:00pm 23.2 E 4 11 1011.6 - - - - - - - - -
26/12:30pm 24.1 W 3 7 1012.1 - - - - - - - - -
26/12:00pm 24.2 S 4 9 1012.5 - - - - - - - - -
26/11:30am 23.9 S 7 11 1013.0 - - - - - - - - -
26/11:00am 23.6 S 7 12 1013.5 - - - - - - - - -
26/10:30am 23.4 S 7 12 1013.8 - - - - - - - - -
26/10:00am 23.3 S 7 12 1014.4 - - - - - - - - -
26/09:30am 23.4 S 7 12 1014.5 - - - - - - - - -
26/09:00am 23.6 S 6 11 1014.5 - - - - - - - - -
26/08:30am 23.4 S 8 13 1014.4 - - - - - - - - -

Other Formats:

Comma delimited format used in spreadsheet applications
http://www.bom.gov.au/fwo/IDQ60701/IDQ60701.95298.axf

JavaScript Object Notation format (JSON) in row-major order
http://www.bom.gov.au/fwo/IDQ60701/IDQ60701.95298.json